Time;durP1;ratioP1;P1;durP2;ratioP2;P2;SDS_P1;SDS_P2;PMS_P1;PMS_P2;Temp;Humidity;BMP_temperature;BMP_pressure;BME280_temperature;BME280_humidity;BME280_pressure;Samples;Min_cycle;Max_cycle;Signal;HPM_P1;HPM_P2
2021/07/25 00:02:11;;;;;;;2.70;2.50;;;;;;;22.39;100.00;96961.84;4971812;28;20309;-66
2021/07/25 00:04:38;;;;;;;2.70;2.50;;;;;;;22.38;100.00;96958.41;4977213;28;20211;-65
2021/07/25 00:07:04;;;;;;;2.20;2.10;;;;;;;22.39;100.00;96956.72;4974806;28;20475;-66
2021/07/25 00:09:31;;;;;;;2.77;2.50;;;;;;;22.39;100.00;96966.94;4976607;28;20600;-66
2021/07/25 00:11:57;;;;;;;2.80;2.60;;;;;;;22.39;100.00;96961.84;4973258;28;20235;-66
2021/07/25 00:14:24;;;;;;;2.80;2.60;;;;;;;22.39;100.00;96962.72;4976026;28;20230;-65
2021/07/25 00:16:54;;;;;;;2.60;2.40;;;;;;;22.39;100.00;96954.16;4972580;28;20259;-66
2021/07/25 00:19:20;;;;;;;2.67;2.30;;;;;;;22.38;100.00;96945.59;4974062;28;20238;-66
2021/07/25 00:21:47;;;;;;;2.60;2.40;;;;;;;22.39;100.00;96934.53;4976771;28;20269;-65
2021/07/25 00:24:17;;;;;;;2.63;2.43;;;;;;;22.39;100.00;96931.09;4976856;28;20321;-66
2021/07/25 00:26:48;;;;;;;2.60;2.40;;;;;;;22.39;100.00;96921.75;4972235;28;20285;-66
2021/07/25 00:29:15;;;;;;;3.50;2.40;;;;;;;22.38;100.00;96922.56;4973502;28;20294;-66
2021/07/25 00:31:42;;;;;;;2.67;2.47;;;;;;;22.38;100.00;96914.88;4979118;28;20242;-65
2021/07/25 00:34:09;;;;;;;2.40;2.20;;;;;;;22.33;100.00;96900.28;4972067;28;20290;-66
2021/07/25 00:36:35;;;;;;;2.53;2.33;;;;;;;22.37;100.00;96902.91;4975753;28;20258;-65
2021/07/25 00:39:10;;;;;;;2.53;2.33;;;;;;;22.38;100.00;96920.00;4972135;28;20306;-66
2021/07/25 00:41:37;;;;;;;2.70;2.50;;;;;;;22.38;100.00;96922.56;4972306;28;20230;-65
2021/07/25 00:44:04;;;;;;;2.10;2.00;;;;;;;22.37;100.00;96917.41;4971561;28;20239;-66
2021/07/25 00:46:30;;;;;;;2.50;2.30;;;;;;;22.09;100.00;96869.16;4996151;23;20259;-70
2021/07/25 00:48:57;;;;;;;2.77;2.57;;;;;;;22.23;100.00;96883.06;4947368;28;20543;-73
2021/07/25 00:51:23;;;;;;;2.50;2.30;;;;;;;22.36;100.00;96908.88;4963668;28;20234;-66
2021/07/25 00:53:50;;;;;;;2.50;2.30;;;;;;;22.24;100.00;96889.91;4974027;28;20231;-72
2021/07/25 00:56:16;;;;;;;2.40;2.30;;;;;;;22.39;100.00;96915.75;4936264;28;20252;-69
2021/07/25 00:58:43;;;;;;;2.60;2.40;;;;;;;22.29;100.00;96888.28;4954102;28;20714;-67
2021/07/25 01:01:11;;;;;;;3.67;2.30;;;;;;;22.30;100.00;96898.56;4937153;28;20355;-69
2021/07/25 01:03:51;;;;;;;2.60;2.40;;;;;;;22.38;100.00;96922.56;4946991;29;20708;-73
2021/07/25 01:06:38;;;;;;;2.70;2.50;;;;;;;22.38;100.00;96925.13;4957019;28;20306;-71
2021/07/25 01:09:10;;;;;;;2.47;2.27;;;;;;;22.29;100.00;96909.59;4947037;29;20227;-71
2021/07/25 01:11:44;;;;;;;2.83;2.63;;;;;;;22.15;100.00;96890.63;4927206;28;20315;-68
2021/07/25 01:14:11;;;;;;;2.40;2.20;;;;;;;22.30;100.00;96913.03;4944508;28;20627;-71
2021/07/25 01:16:38;;;;;;;3.10;2.50;;;;;;;22.38;100.00;96922.56;4942923;28;20260;-71
2021/07/25 01:19:04;;;;;;;2.57;2.37;;;;;;;22.38;100.00;96914.88;4945751;29;20295;-69
2021/07/25 01:21:31;;;;;;;2.50;2.30;;;;;;;22.38;100.00;96912.31;4943248;29;20270;-68
2021/07/25 01:23:59;;;;;;;2.80;2.60;;;;;;;22.08;100.00;96867.47;4953648;28;20292;-71
2021/07/25 01:26:30;;;;;;;2.43;2.23;;;;;;;22.34;100.00;96912.25;4950779;28;20287;-67
2021/07/25 01:28:58;;;;;;;2.73;2.53;;;;;;;22.19;100.00;96882.16;4941467;29;20239;-70
2021/07/25 01:31:30;;;;;;;2.60;2.40;;;;;;;22.34;100.00;96907.13;4931175;28;20227;-68
2021/07/25 01:33:58;;;;;;;2.50;2.30;;;;;;;22.38;100.00;96922.56;4947458;29;20212;-69
2021/07/25 01:36:25;;;;;;;2.57;2.37;;;;;;;22.31;100.00;96909.63;4947779;28;20327;-69
2021/07/25 01:38:52;;;;;;;2.57;2.30;;;;;;;21.92;100.00;96850.09;4963442;28;20204;-69
2021/07/25 01:41:19;;;;;;;2.60;2.40;;;;;;;22.26;100.00;96904.44;4932758;29;20234;-71
2021/07/25 01:43:47;;;;;;;2.47;2.27;;;;;;;22.25;100.00;96897.59;4953662;28;20242;-68
2021/07/25 01:46:14;;;;;;;2.40;2.20;;;;;;;22.36;100.00;96914.00;4933539;29;20267;-69
2021/07/25 01:48:42;;;;;;;2.30;2.20;;;;;;;22.33;100.00;96905.41;4953665;28;20208;-70
2021/07/25 01:51:10;;;;;;;2.10;2.00;;;;;;;22.37;100.00;96912.28;4944029;28;20283;-68
2021/07/25 01:53:37;;;;;;;2.10;2.00;;;;;;;22.37;100.00;96914.84;4925433;28;20889;-69
2021/07/25 01:56:03;;;;;;;2.60;2.40;;;;;;;22.36;100.00;96916.56;4945131;28;20248;-70
2021/07/25 01:58:30;;;;;;;2.50;2.30;;;;;;;22.05;100.00;96862.28;4943265;29;20299;-69
2021/07/25 02:00:56;;;;;;;2.60;2.40;;;;;;;22.38;100.00;96911.47;4949348;28;20633;-72
2021/07/25 02:03:24;;;;;;;2.70;2.50;;;;;;;22.27;100.00;96901.06;4961948;28;20221;-69
2021/07/25 02:05:52;;;;;;;2.50;2.30;;;;;;;22.38;100.00;96919.16;4935228;28;20239;-69
2021/07/25 02:08:18;;;;;;;2.50;2.30;;;;;;;22.30;100.00;96925.84;4949493;28;20267;-69
2021/07/25 02:10:45;;;;;;;2.63;2.40;;;;;;;22.36;100.00;96947.28;4941858;29;20208;-68
2021/07/25 02:13:13;;;;;;;2.60;2.40;;;;;;;22.30;100.00;96948.88;4951004;28;20232;-70
2021/07/25 02:15:39;;;;;;;2.77;2.50;;;;;;;22.25;100.00;96937.69;4933692;28;20232;-72
2021/07/25 02:18:06;;;;;;;2.30;2.17;;;;;;;22.30;100.00;96960.00;4940428;29;20214;-69
2021/07/25 02:20:33;;;;;;;2.40;2.20;;;;;;;22.38;100.00;96978.88;4942378;29;20266;-72
2021/07/25 02:22:59;;;;;;;2.30;2.20;;;;;;;21.95;100.00;96897.09;4939262;29;20319;-69
2021/07/25 02:25:26;;;;;;;2.80;2.60;;;;;;;22.25;100.00;96953.91;4944442;28;20200;-70
2021/07/25 02:27:52;;;;;;;2.30;2.20;;;;;;;22.33;100.00;96967.72;4948042;28;20271;-68
2021/07/25 02:30:19;;;;;;;2.17;2.07;;;;;;;22.30;100.00;96970.22;4951396;28;20677;-72
2021/07/25 02:32:46;;;;;;;2.37;2.27;;;;;;;22.39;100.00;96982.31;4949546;28;20228;-68
2021/07/25 02:35:12;;;;;;;2.70;2.50;;;;;;;22.25;100.00;96941.13;4942060;29;20263;-71
2021/07/25 02:37:39;;;;;;;2.10;2.00;;;;;;;22.29;100.00;96960.81;4948740;28;20319;-71
2021/07/25 02:40:06;;;;;;;2.30;2.10;;;;;;;22.35;100.00;96947.25;4955198;28;20537;-65
2021/07/25 02:42:32;;;;;;;2.40;2.20;;;;;;;22.34;100.00;96942.97;4943074;29;20323;-69
2021/07/25 02:44:59;;;;;;;2.50;2.30;;;;;;;22.39;100.00;96937.09;4948406;28;20201;-70
2021/07/25 02:47:26;;;;;;;2.67;2.47;;;;;;;22.33;100.00;96942.13;4951704;28;20271;-67
2021/07/25 02:49:52;;;;;;;2.27;2.17;;;;;;;22.38;100.00;96958.41;4951440;28;20246;-73
2021/07/25 02:52:19;;;;;;;2.50;2.30;;;;;;;22.39;100.00;96951.59;4951885;28;20307;-70
2021/07/25 02:54:46;;;;;;;2.47;2.27;;;;;;;22.39;100.00;96954.16;4952199;28;20205;-69
2021/07/25 02:57:13;;;;;;;2.47;2.27;;;;;;;22.23;100.00;96918.91;4951740;28;20547;-69
2021/07/25 02:59:39;;;;;;;2.50;2.30;;;;;;;22.29;100.00;96921.56;4932390;29;20303;-70
2021/07/25 03:02:06;;;;;;;2.43;2.23;;;;;;;22.28;100.00;96910.44;4948112;29;20254;-66
2021/07/25 03:04:32;;;;;;;2.50;2.30;;;;;;;22.38;100.00;96927.69;4943275;29;20212;-69
2021/07/25 03:06:59;;;;;;;2.33;2.17;;;;;;;22.37;100.00;96933.66;4952118;28;20866;-72
2021/07/25 03:09:26;;;;;;;2.60;2.40;;;;;;;22.38;100.00;96935.34;4942773;29;20247;-67
2021/07/25 03:11:52;;;;;;;2.20;2.10;;;;;;;22.37;100.00;96938.75;4949848;28;20239;-70
2021/07/25 03:14:19;;;;;;;2.80;2.60;;;;;;;22.29;100.00;96935.19;4951806;28;20295;-72
2021/07/25 03:16:46;;;;;;;3.40;2.20;;;;;;;22.35;100.00;96953.22;4957932;28;20311;-65
2021/07/25 03:19:12;;;;;;;2.53;2.27;;;;;;;22.22;100.00;96923.16;4958212;28;20259;-72
2021/07/25 03:21:39;;;;;;;2.70;2.50;;;;;;;22.37;100.00;96931.09;4959961;28;20295;-69
2021/07/25 03:24:05;;;;;;;2.73;2.20;;;;;;;22.24;100.00;96906.13;4951807;28;20239;-70
2021/07/25 03:26:32;;;;;;;2.40;2.20;;;;;;;22.31;100.00;96909.63;4949461;29;20675;-69
2021/07/25 03:28:59;;;;;;;2.30;2.20;;;;;;;22.31;100.00;96907.06;4955106;28;20639;-73
2021/07/25 03:31:25;;;;;;;2.80;2.50;;;;;;;22.30;100.00;96892.56;4951589;28;20207;-65
2021/07/25 03:33:53;;;;;;;2.60;2.40;;;;;;;22.33;100.00;96907.97;4940971;29;20212;-71
2021/07/25 03:36:22;;;;;;;2.27;2.10;;;;;;;22.38;100.00;96917.44;4940982;28;20224;-70
2021/07/25 03:38:48;;;;;;;2.60;2.40;;;;;;;22.34;100.00;96909.69;4950838;28;20254;-71
2021/07/25 03:41:15;;;;;;;2.60;2.40;;;;;;;22.38;100.00;96907.19;4951685;28;20311;-69
2021/07/25 03:43:41;;;;;;;2.50;2.30;;;;;;;22.30;100.00;96929.28;4950304;28;20220;-69
2021/07/25 03:46:08;;;;;;;2.40;2.20;;;;;;;22.37;100.00;96949.00;4959422;28;20259;-70
2021/07/25 03:48:35;;;;;;;2.20;2.00;;;;;;;22.39;100.00;96951.59;4928435;29;20674;-70
2021/07/25 03:51:01;;;;;;;2.37;2.17;;;;;;;22.38;100.00;96947.31;4950887;28;20231;-69
2021/07/25 03:53:28;;;;;;;2.23;2.13;;;;;;;22.30;100.00;96929.28;4924582;29;20697;-72
2021/07/25 03:55:55;;;;;;;2.40;2.20;;;;;;;22.25;100.00;96912.09;4942068;29;20240;-70
2021/07/25 03:58:21;;;;;;;2.13;2.03;;;;;;;22.38;100.00;96930.25;4959461;28;20295;-69
2021/07/25 04:00:48;;;;;;;2.90;2.60;;;;;;;22.38;100.00;96906.34;4950981;28;20235;-72
2021/07/25 04:03:14;;;;;;;3.00;2.10;;;;;;;22.30;100.00;96905.34;4950901;28;20275;-69
2021/07/25 04:05:41;;;;;;;2.20;2.10;;;;;;;22.39;100.00;96908.06;4955118;28;20212;-69
2021/07/25 04:08:09;;;;;;;2.30;2.10;;;;;;;22.27;100.00;96889.94;4951719;28;20311;-70
2021/07/25 04:10:40;;;;;;;2.10;2.00;;;;;;;22.17;100.00;96863.34;4934211;29;20208;-66
2021/07/25 04:13:08;;;;;;;2.27;2.17;;;;;;;22.26;100.00;96888.22;4940709;28;20238;-69
2021/07/25 04:15:37;;;;;;;2.10;2.00;;;;;;;21.95;100.00;96839.91;4929604;28;20538;-70
2021/07/25 04:18:05;;;;;;;2.40;2.20;;;;;;;22.37;100.00;96923.41;4930018;29;20650;-69
2021/07/25 04:20:31;;;;;;;2.27;2.17;;;;;;;22.38;100.00;96943.03;4942386;29;20692;-69
2021/07/25 04:22:58;;;;;;;2.43;2.23;;;;;;;22.37;100.00;96928.53;4950526;28;20312;-72
2021/07/25 04:25:25;;;;;;;2.47;2.27;;;;;;;22.37;100.00;96940.44;4943758;28;20327;-69
2021/07/25 04:27:51;;;;;;;2.50;2.30;;;;;;;22.38;100.00;96953.28;4950049;28;20773;-69
2021/07/25 04:30:19;;;;;;;2.13;2.03;;;;;;;22.38;100.00;96968.63;4949715;28;20764;-71
2021/07/25 04:32:45;;;;;;;2.20;2.10;;;;;;;22.33;100.00;96954.91;4951152;28;20200;-71
2021/07/25 04:35:13;;;;;;;2.50;2.30;;;;;;;22.30;100.00;96948.88;4950814;28;20633;-70
2021/07/25 04:37:48;;;;;;;3.20;2.47;;;;;;;22.39;100.00;96990.00;4959734;28;20271;-69
2021/07/25 04:40:16;;;;;;;2.50;2.30;;;;;;;22.36;100.00;96987.38;4950389;28;20299;-70
2021/07/25 04:42:50;;;;;;;2.43;2.23;;;;;;;22.26;100.00;96973.53;4945218;29;20251;-69
2021/07/25 04:45:32;;;;;;;2.60;2.40;;;;;;;22.19;100.00;96953.81;4946442;29;20251;-69
2021/07/25 04:48:08;;;;;;;2.37;2.20;;;;;;;22.39;100.00;96984.88;4944662;28;20701;-69
2021/07/25 04:50:36;;;;;;;2.50;2.30;;;;;;;22.38;100.00;96986.56;4953825;28;20251;-69
2021/07/25 04:53:04;;;;;;;2.23;2.10;;;;;;;22.33;100.00;96967.72;4942994;28;20247;-72
2021/07/25 04:55:32;;;;;;;2.47;2.27;;;;;;;22.38;100.00;96989.13;4952020;28;20331;-69
2021/07/25 04:58:06;;;;;;;2.20;2.10;;;;;;;22.29;100.00;96983.84;4942833;28;20235;-69
2021/07/25 05:00:37;;;;;;;2.10;2.00;;;;;;;22.39;100.00;97000.25;4932588;29;20204;-71
2021/07/25 05:03:05;;;;;;;2.23;2.00;;;;;;;22.24;100.00;96995.72;4943438;29;20224;-73
2021/07/25 05:05:32;;;;;;;2.23;2.03;;;;;;;22.14;100.00;96959.69;4942521;28;20206;-72
2021/07/25 05:07:59;;;;;;;4.13;2.30;;;;;;;22.14;100.00;96957.13;4944533;29;20294;-71
2021/07/25 05:10:26;;;;;;;2.30;2.10;;;;;;;22.29;100.00;96988.13;4944052;29;20244;-68
2021/07/25 05:13:08;;;;;;;2.57;2.37;;;;;;;22.29;100.00;96993.25;4941923;29;20287;-71
2021/07/25 05:15:40;;;;;;;2.63;2.20;;;;;;;22.29;100.00;97001.75;4932431;28;21171;-68
2021/07/25 05:18:07;;;;;;;2.50;2.10;;;;;;;22.36;100.00;97007.88;4932700;29;20299;-69
2021/07/25 05:20:51;;;;;;;2.30;2.10;;;;;;;22.24;100.00;96975.25;4953424;28;20219;-70
2021/07/25 05:23:21;;;;;;;2.43;2.23;;;;;;;22.29;100.00;96978.72;4948856;29;20761;-69
2021/07/25 05:25:51;;;;;;;2.40;2.20;;;;;;;22.27;100.00;96965.06;4935584;29;20232;-69
2021/07/25 05:28:19;;;;;;;2.57;2.30;;;;;;;22.37;100.00;96983.97;4944134;29;20656;-70
2021/07/25 05:30:55;;;;;;;2.27;2.17;;;;;;;22.06;100.00;96935.66;4941627;29;20658;-71
2021/07/25 05:33:23;;;;;;;3.40;2.40;;;;;;;21.33;100.00;96808.09;4944391;29;20206;-72
2021/07/25 05:35:49;;;;;;;1.97;1.87;;;;;;;22.20;100.00;96950.41;4925836;28;20295;-69
2021/07/25 05:38:17;;;;;;;2.43;2.23;;;;;;;22.29;100.00;96968.47;4946256;29;20247;-71
2021/07/25 05:40:43;;;;;;;2.60;2.40;;;;;;;22.29;100.00;96967.63;4925812;28;20240;-69
2021/07/25 05:43:10;;;;;;;2.17;2.07;;;;;;;22.36;100.00;96969.47;4947452;29;20361;-69
2021/07/25 05:45:37;;;;;;;2.10;2.00;;;;;;;22.37;100.00;96979.72;4949505;28;20254;-71
2021/07/25 05:48:04;;;;;;;2.17;2.07;;;;;;;22.37;100.00;96978.84;4940831;28;20243;-70
2021/07/25 05:50:30;;;;;;;2.60;2.40;;;;;;;21.99;100.00;96910.81;4954938;28;20237;-69
2021/07/25 05:52:57;;;;;;;4.63;2.60;;;;;;;22.36;100.00;96969.47;4941625;28;20622;-69
2021/07/25 05:55:25;;;;;;;2.17;2.07;;;;;;;22.32;100.00;96965.13;4945275;29;20295;-68
2021/07/25 05:57:52;;;;;;;2.40;2.20;;;;;;;22.37;100.00;96973.72;4949261;29;20693;-71
2021/07/25 06:00:19;;;;;;;3.07;2.40;;;;;;;22.37;100.00;96966.06;4952188;28;20239;-68
2021/07/25 06:03:01;;;;;;;2.47;2.27;;;;;;;22.36;100.00;96972.91;4943097;29;20263;-66
2021/07/25 06:05:29;;;;;;;2.53;2.33;;;;;;;22.30;100.00;96969.34;4941822;29;20207;-69
2021/07/25 06:07:57;;;;;;;2.50;2.30;;;;;;;22.29;100.00;96976.16;4959327;28;20363;-72
2021/07/25 06:10:25;;;;;;;2.20;2.10;;;;;;;22.24;100.00;96976.94;4943354;29;20236;-70
2021/07/25 06:12:52;;;;;;;2.57;2.37;;;;;;;22.37;100.00;96994.22;4941234;29;20232;-69
2021/07/25 06:15:19;;;;;;;2.47;2.30;;;;;;;22.28;100.00;96986.38;4953560;28;20258;-71
2021/07/25 06:17:45;;;;;;;2.70;2.50;;;;;;;22.28;100.00;96989.81;4957662;28;20260;-66
2021/07/25 06:20:12;;;;;;;2.43;2.27;;;;;;;22.37;100.00;97005.31;4949382;28;20303;-68
2021/07/25 06:22:43;;;;;;;2.57;2.27;;;;;;;22.37;100.00;97007.03;4941966;29;20299;-70
2021/07/25 06:25:11;;;;;;;2.27;2.17;;;;;;;22.29;100.00;96996.63;4944089;29;20246;-68
2021/07/25 06:27:37;;;;;;;2.20;2.00;;;;;;;22.25;100.00;96981.19;4942391;29;20255;-74
2021/07/25 06:30:05;;;;;;;2.47;2.27;;;;;;;22.29;100.00;96990.69;4945756;29;20730;-69
2021/07/25 06:32:58;;;;;;;2.20;2.00;;;;;;;22.37;100.00;97005.31;4943760;29;20247;-71
2021/07/25 06:35:27;;;;;;;2.20;2.00;;;;;;;22.07;100.00;96952.72;4955690;28;20285;-70
2021/07/25 06:37:53;;;;;;;2.27;2.17;;;;;;;22.27;100.00;96985.53;4933552;29;20692;-68
2021/07/25 06:40:20;;;;;;;2.07;1.97;;;;;;;22.36;100.00;97001.06;4941980;29;20667;-71
2021/07/25 06:42:47;;;;;;;2.00;1.90;;;;;;;22.36;100.00;96998.50;4947011;29;20323;-69
2021/07/25 06:45:13;;;;;;;2.40;2.20;;;;;;;22.25;100.00;96978.63;4948614;29;20653;-69
2021/07/25 06:47:41;;;;;;;2.30;2.20;;;;;;;22.22;100.00;96986.25;5097747;23;20881;-65
2021/07/25 06:50:09;;;;;;;2.20;2.10;;;;;;;22.37;100.00;97009.56;5004107;28;20325;-66
2021/07/25 06:52:38;;;;;;;1.90;1.80;;;;;;;22.36;100.00;97015.53;4998369;28;20238;-66
2021/07/25 06:55:07;;;;;;;2.30;2.10;;;;;;;22.37;100.00;97009.56;5001712;28;20281;-65
2021/07/25 06:57:34;;;;;;;2.40;2.20;;;;;;;22.37;100.00;97001.91;5002651;28;20261;-67
2021/07/25 07:00:02;;;;;;;2.00;1.90;;;;;;;22.36;100.00;97003.63;5004683;28;20696;-66
2021/07/25 07:02:43;;;;;;;2.30;2.10;;;;;;;22.37;100.00;97001.91;5007843;28;20293;-66
2021/07/25 07:05:10;;;;;;;2.50;2.30;;;;;;;22.37;100.00;97009.56;5006524;28;20660;-66
2021/07/25 07:07:37;;;;;;;2.13;2.03;;;;;;;22.37;100.00;97007.03;5005255;28;20284;-66
2021/07/25 07:10:04;;;;;;;2.37;2.17;;;;;;;22.37;100.00;96995.09;5007457;28;20268;-66
2021/07/25 07:12:30;;;;;;;2.40;2.20;;;;;;;22.37;100.00;96991.66;5007590;28;20683;-67
2021/07/25 07:14:57;;;;;;;2.37;2.20;;;;;;;22.38;100.00;96994.25;5008585;28;20198;-66
2021/07/25 07:17:23;;;;;;;2.40;2.20;;;;;;;22.38;100.00;96986.56;5008052;28;20280;-66
2021/07/25 07:19:50;;;;;;;2.27;2.13;;;;;;;22.36;100.00;96985.69;5007628;28;20206;-66
2021/07/25 07:22:30;;;;;;;2.43;2.23;;;;;;;22.37;100.00;96978.84;5007884;28;20290;-67
2021/07/25 07:24:57;;;;;;;2.13;2.03;;;;;;;22.38;100.00;96980.59;5008192;28;20218;-66
2021/07/25 07:27:24;;;;;;;2.20;2.10;;;;;;;22.32;100.00;96976.22;5007461;28;20305;-67
2021/07/25 07:29:51;;;;;;;4.83;2.27;;;;;;;22.36;100.00;96983.13;4996102;28;20747;-68
2021/07/25 07:32:18;;;;;;;2.07;1.97;;;;;;;22.38;100.00;96990.84;5007659;28;20238;-66
2021/07/25 07:34:45;;;;;;;2.17;1.87;;;;;;;22.37;100.00;96989.09;5007840;28;20751;-64
2021/07/25 07:37:11;;;;;;;2.20;2.10;;;;;;;22.37;100.00;96983.97;5007255;28;20308;-66
2021/07/25 07:39:39;;;;;;;3.93;2.23;;;;;;;22.36;100.00;96972.91;5007463;28;20703;-66
2021/07/25 07:42:06;;;;;;;2.20;2.00;;;;;;;22.36;100.00;96966.91;5007419;28;20285;-64
2021/07/25 07:44:32;;;;;;;2.50;2.30;;;;;;;22.36;100.00;96967.78;5006315;28;20313;-66
2021/07/25 07:46:59;;;;;;;2.20;2.00;;;;;;;22.36;100.00;96970.34;5001419;28;20269;-66
2021/07/25 07:49:26;;;;;;;2.60;2.40;;;;;;;22.36;100.00;96962.66;5007168;28;20202;-65
2021/07/25 07:51:52;;;;;;;2.20;2.10;;;;;;;22.36;100.00;96959.22;5007685;28;20297;-66
2021/07/25 07:54:19;;;;;;;2.03;1.93;;;;;;;22.36;100.00;96961.78;5005790;28;20668;-66
2021/07/25 07:56:46;;;;;;;2.57;2.10;;;;;;;22.12;100.00;96935.75;5008426;28;20281;-65
2021/07/25 07:59:12;;;;;;;2.13;2.03;;;;;;;22.36;100.00;96982.25;5009172;28;20562;-67
2021/07/25 08:01:39;;;;;;;2.30;2.10;;;;;;;22.36;100.00;96983.13;5006042;28;20289;-66
2021/07/25 08:04:06;;;;;;;2.47;2.27;;;;;;;22.36;100.00;96993.38;5007452;28;20305;-66
2021/07/25 08:06:32;;;;;;;2.10;2.00;;;;;;;22.36;100.00;96995.94;5007353;28;20222;-66
2021/07/25 08:08:59;;;;;;;2.40;2.20;;;;;;;22.38;100.00;97008.75;5002201;28;20443;-67
2021/07/25 08:11:25;;;;;;;2.53;2.33;;;;;;;22.37;100.00;97025.81;5007308;28;20234;-67
2021/07/25 08:13:52;;;;;;;2.10;2.00;;;;;;;22.36;100.00;97029.22;5008402;28;20234;-67
2021/07/25 08:16:19;;;;;;;2.43;2.23;;;;;;;22.37;100.00;97036.06;5006929;28;20314;-66
2021/07/25 08:18:45;;;;;;;2.10;2.00;;;;;;;22.36;100.00;97036.91;5006863;28;20268;-66
2021/07/25 08:21:12;;;;;;;2.37;2.23;;;;;;;22.36;100.00;97054.81;5007034;28;20241;-68
2021/07/25 08:23:38;;;;;;;2.30;2.20;;;;;;;22.36;100.00;97064.19;5007967;28;20340;-67
2021/07/25 08:26:05;;;;;;;2.67;2.10;;;;;;;22.31;100.00;97058.97;5009773;28;20237;-64
2021/07/25 08:28:32;;;;;;;2.20;2.10;;;;;;;22.36;100.00;97072.75;5009154;28;20241;-67
2021/07/25 08:30:59;;;;;;;2.10;2.00;;;;;;;22.36;100.00;97072.75;5010480;28;20206;-66
2021/07/25 08:33:26;;;;;;;2.37;2.20;;;;;;;22.37;100.00;97076.16;5010592;28;20198;-66
2021/07/25 08:35:52;;;;;;;2.37;2.17;;;;;;;22.36;100.00;97080.41;5010754;28;20234;-67
2021/07/25 08:38:19;;;;;;;2.20;2.10;;;;;;;22.36;100.00;97075.31;5010347;28;20301;-69
2021/07/25 08:41:12;;;;;;;2.20;2.10;;;;;;;22.37;100.00;97068.47;5010489;28;20293;-67
2021/07/25 08:43:43;;;;;;;2.20;2.03;;;;;;;22.36;100.00;97077.84;5002045;28;20248;-66
2021/07/25 08:46:20;;;;;;;2.30;2.10;;;;;;;22.37;100.00;97078.69;5010392;28;20289;-66
2021/07/25 08:48:48;;;;;;;1.93;1.83;;;;;;;22.36;100.00;97082.09;5015062;28;20232;-66
2021/07/25 08:51:17;;;;;;;2.47;2.10;;;;;;;22.36;100.00;97087.22;5010293;28;20743;-66
2021/07/25 08:53:49;;;;;;;2.40;2.20;;;;;;;22.36;100.00;97088.09;5009255;28;20655;-66
2021/07/25 08:56:15;;;;;;;2.90;2.40;;;;;;;22.16;100.00;97052.69;5009996;28;20257;-65
2021/07/25 08:58:43;;;;;;;2.40;2.20;;;;;;;22.37;100.00;97088.94;4999513;28;20245;-67
2021/07/25 09:01:12;;;;;;;2.10;2.00;;;;;;;22.35;100.00;97077.84;5010199;28;20302;-66
2021/07/25 09:03:39;;;;;;;2.10;2.00;;;;;;;21.93;100.00;97003.63;5017468;28;20707;-68
2021/07/25 09:06:05;;;;;;;2.67;2.00;;;;;;;22.35;100.00;97072.72;4998571;28;20293;-64
2021/07/25 09:08:33;;;;;;;2.37;2.17;;;;;;;22.35;100.00;97070.16;5009940;28;20301;-66
2021/07/25 09:11:05;;;;;;;2.20;2.10;;;;;;;22.30;100.00;97062.38;4998407;28;20706;-68
2021/07/25 09:13:32;;;;;;;2.10;2.00;;;;;;;22.35;100.00;97078.69;5000590;28;20233;-66
2021/07/25 09:15:59;;;;;;;2.00;1.90;;;;;;;22.35;100.00;97083.78;5010282;28;20217;-66
2021/07/25 09:18:26;;;;;;;2.13;2.03;;;;;;;22.35;100.00;97067.59;5008477;28;20202;-65
2021/07/25 09:20:52;;;;;;;2.50;2.30;;;;;;;22.35;100.00;97070.16;5009930;28;20302;-66
2021/07/25 09:23:19;;;;;;;3.60;2.10;;;;;;;22.36;100.00;97082.97;5009459;28;20225;-66
2021/07/25 09:25:53;;;;;;;2.67;2.10;;;;;;;22.35;100.00;97071.00;5009928;28;20230;-69
2021/07/25 09:28:22;;;;;;;2.40;2.20;;;;;;;22.35;100.00;97072.72;5009673;28;20321;-67
2021/07/25 09:30:49;;;;;;;2.53;2.33;;;;;;;22.36;100.00;97071.88;5007984;28;20296;-67
2021/07/25 09:33:29;;;;;;;2.00;1.90;;;;;;;22.35;100.00;97065.88;5009505;28;20562;-66
2021/07/25 09:36:04;;;;;;;2.17;2.07;;;;;;;22.35;100.00;97049.66;5008818;28;20234;-65
2021/07/25 09:38:31;;;;;;;2.17;2.07;;;;;;;22.35;100.00;97050.50;5008049;28;20575;-68
2021/07/25 09:40:57;;;;;;;2.10;2.00;;;;;;;22.36;100.00;97041.16;5010083;28;20621;-64
2021/07/25 09:43:24;;;;;;;2.10;2.00;;;;;;;22.35;100.00;97017.22;5009779;28;20230;-66
2021/07/25 09:45:53;;;;;;;2.20;2.10;;;;;;;22.35;100.00;96989.06;5009544;28;20672;-66
2021/07/25 09:48:26;;;;;;;2.20;2.10;;;;;;;22.34;100.00;96974.56;5011735;28;20206;-66
2021/07/25 09:50:54;;;;;;;2.30;2.20;;;;;;;22.35;100.00;96972.88;5009132;28;20289;-64
2021/07/25 09:53:20;;;;;;;2.40;2.20;;;;;;;22.36;100.00;96961.78;5009392;28;20284;-66
2021/07/25 09:55:47;;;;;;;1.90;1.80;;;;;;;22.36;100.00;96948.97;5009066;28;20289;-66
2021/07/25 09:58:14;;;;;;;2.27;2.13;;;;;;;22.36;100.00;96936.19;5008927;28;20229;-67
2021/07/25 10:00:44;;;;;;;2.30;2.20;;;;;;;22.35;100.00;96927.63;5007812;28;20722;-66
2021/07/25 10:03:17;;;;;;;2.30;2.10;;;;;;;22.36;100.00;96928.50;5008979;28;20210;-66
2021/07/25 10:05:45;;;;;;;2.13;1.93;;;;;;;22.36;100.00;96905.47;5008972;28;20683;-66
2021/07/25 10:08:15;;;;;;;2.33;2.10;;;;;;;22.36;100.00;96910.56;5008609;28;20222;-66
2021/07/25 10:10:44;;;;;;;2.00;1.90;;;;;;;22.36;100.00;96923.38;5008550;28;20264;-67
2021/07/25 10:13:13;;;;;;;2.00;1.90;;;;;;;22.35;100.00;96945.53;5008357;28;20207;-66
2021/07/25 10:15:39;;;;;;;2.37;2.23;;;;;;;22.35;100.00;96957.50;5007087;28;20288;-66
2021/07/25 10:18:07;;;;;;;2.57;2.37;;;;;;;22.16;100.00;96943.50;5007275;28;20225;-66
2021/07/25 10:20:33;;;;;;;2.40;2.20;;;;;;;22.30;100.00;96967.66;5006923;28;20765;-66
2021/07/25 10:23:01;;;;;;;2.40;2.20;;;;;;;22.35;100.00;96991.63;5002341;28;20206;-66
2021/07/25 10:25:28;;;;;;;2.13;2.03;;;;;;;22.35;100.00;96998.47;5008227;28;20313;-66
2021/07/25 10:27:57;;;;;;;2.07;1.97;;;;;;;22.35;100.00;96996.75;5008576;28;20265;-66
2021/07/25 10:30:24;;;;;;;2.30;2.10;;;;;;;22.36;100.00;96990.81;5011468;28;20292;-67
2021/07/25 10:32:51;;;;;;;2.03;1.93;;;;;;;22.36;100.00;96992.50;5008609;28;20257;-65
2021/07/25 10:35:20;;;;;;;2.40;2.20;;;;;;;22.36;100.00;96990.81;5006890;28;20285;-66
2021/07/25 10:37:49;;;;;;;2.10;2.00;;;;;;;22.35;100.00;96994.19;5006894;28;20253;-67
2021/07/25 10:40:16;;;;;;;2.33;2.23;;;;;;;22.16;100.00;96947.75;5007983;28;20289;-65
2021/07/25 10:42:49;;;;;;;2.17;2.07;;;;;;;22.31;100.00;96983.88;4985839;28;20648;-66
2021/07/25 10:45:16;;;;;;;2.30;2.20;;;;;;;22.36;100.00;96989.94;4987709;28;20309;-65
2021/07/25 10:47:44;;;;;;;2.27;2.07;;;;;;;22.36;100.00;96997.63;5007944;28;20300;-67
2021/07/25 10:50:18;;;;;;;2.03;1.83;;;;;;;22.35;100.00;96991.63;4993631;28;20286;-65
2021/07/25 10:52:49;;;;;;;2.27;2.10;;;;;;;22.36;100.00;96992.50;5006210;28;20292;-64
2021/07/25 10:55:34;;;;;;;2.20;2.00;;;;;;;22.35;100.00;96998.47;5008298;28;20244;-63
2021/07/25 10:58:04;;;;;;;2.17;2.07;;;;;;;22.35;100.00;97001.88;5002790;28;20711;-66
2021/07/25 11:00:58;;;;;;;2.30;2.10;;;;;;;22.36;100.00;97002.75;5007683;28;20309;-65
2021/07/25 11:03:24;;;;;;;2.27;2.17;;;;;;;22.36;100.00;97005.31;5003087;28;20563;-66
2021/07/25 11:06:05;;;;;;;2.20;2.10;;;;;;;22.36;100.00;97005.31;5008191;28;20655;-66
2021/07/25 11:08:32;;;;;;;2.10;2.00;;;;;;;22.36;100.00;96997.63;5007457;28;20658;-66
2021/07/25 11:10:59;;;;;;;2.70;2.10;;;;;;;22.36;100.00;96990.81;5002780;28;20245;-62
2021/07/25 11:13:38;;;;;;;2.30;2.10;;;;;;;22.35;100.00;96994.19;5008230;28;20244;-65
2021/07/25 11:16:44;;;;;;;2.37;2.17;;;;;;;22.35;100.00;97004.44;5003010;28;20226;-66
2021/07/25 11:19:17;;;;;;;2.50;2.00;;;;;;;22.36;100.00;97002.75;4941758;28;20206;-66
2021/07/25 11:21:44;;;;;;;2.00;1.90;;;;;;;22.35;100.00;96988.22;5008244;28;20237;-66
2021/07/25 11:24:23;;;;;;;2.00;1.90;;;;;;;22.35;100.00;96991.63;5007167;28;20320;-67
2021/07/25 11:26:53;;;;;;;3.80;2.20;;;;;;;22.19;100.00;96963.19;5007563;28;20292;-65
2021/07/25 11:29:22;;;;;;;2.00;1.90;;;;;;;22.35;100.00;96989.06;5003664;28;20292;-65
2021/07/25 11:31:50;;;;;;;2.53;2.33;;;;;;;22.35;100.00;96985.66;5007286;28;20246;-67